LiveATC.Net - Listen to live air traffic control over the Internet! Contact LiveATC.net for advertising information


ICAO: KOQU  IATA: OQU   Airport: Quonset State Airport
City: North Kingstown   State/Province: Rhode Island
Country: United States   Continent: North America
KOQU METAR Weather: KOQU 312050Z 06020KT 15SM SCT025 OVC030 11/06 A2996
KOQU Flight Activity (FlightAware)
KOQU Airport Info   (AirNav) (iFlightPlanner)
KOQU Ground/Tower
Feed Status: DOWN
Last heard on: 2014-10-18 01:50:05 (13 days 19 hours 32 minutes ago)
KOQU Ground/Tower Audio Archives
FacilityFrequency
Quonset Ground134.500
Quonset Tower126.350


NOTICE

Unauthorized use prohibited. See LiveATC.net Terms of Service


Find LiveATC Audio Streams


Airport/ARTCC Code

Frequency
(e.g., 124.400, 128.75)
Site-wide search

Browse LiveATC Feeds
LiveATC Coverage Map
Top 50 LiveATC Feeds
Bad Weather Areas

LiveATC FAQ
Offer a LiveATC Feed
Contact LiveATC.net
Press Inquiries

LiveATC on iPhone
LiveATC on Android

LiveATC Mobile
(Mobile browser)

ATC Audio Archives
Interesting Recordings

LiveATC Forums


Home Page
About LiveATC.net
Make a Donation
LiveATC Bookstore

Terms of Use
Privacy Policy

ATC/Radar Sites
U.S. ARTCC Freqs
Canadian Air Freqs

AIRMETs/SIGMETs

FAA Airport Status
Nat'l Airspace Status
Arrival Demand Charts


Server Software By:
Icecast.org
Liquidsoap

Please make a donation to help us keep growing!